Aérodrome :
LOGIN :

S'inscrire | Disclaimer

   EN    FR    IT 

 










Légende :    VFR   VFR Marginal   IFR   IFR Intensif   IFR Très Intensif
Visi : 
Plafond : 
>= 8 km
>= 3000ft
5 à 8 km
1000 à 3000 ft
1500m à 5 km
500 à 1000 ft
800 à 1500m
200 à 500 ft
< 800m
< 200 ft
Symboles :   Orages  Brouillard  Fortes neiges  Fortes précipitations  Vent > 20 kt
SIGMETs :   Divers  Orages  Givrage  Turbulence  Onde Orograph.  Cendres Volcan.







- Altitude de l'aérodrome : 100 ft


EBDT - Schaffen

DERNIER METAR :
  • 210025Z AUTO 30006KT 2600 -RA SCT003/// BKN008/// BKN048/// 02/02 Q1007 YLO

METARs EXPIRÉS :
  • 202355Z AUTO 29006KT 2400 -RA SCT003/// BKN010/// BKN016/// 02/02 Q1007 YLO
  • 202325Z AUTO 30005KT 2300 BR BKN003/// BKN005/// OVC015/// 02/02 Q1006 YLO
  • 202255Z AUTO 31005KT 2800 BR BKN004/// BKN006/// 02/02 Q1005 YLO
  • 202225Z AUTO 33005KT 3100 BR SCT004/// OVC006/// 02/02 Q1004 YLO
  • 202155Z AUTO 33006KT 3400 BR BKN003/// OVC005/// 02/02 Q1004 YLO
  • 202143Z AUTO 33006KT 2800 BR SCT003/// OVC005/// 02/02 Q1004 YLO
  • 202125Z AUTO 34005KT 2700 BR BKN002/// BKN006/// 02/01 Q1003 AMB

Prévision TAF périmée.
Pas de NOTAMs connus pour ce terrain.



MET'MAP, la Météo Aéronautique d'un coup d'oeil ! - Copyright ORBIFLY Décembre 2007 - Disclaimer

ORBIFLY MET'MAP TEAM :

Programmation & Développement : Alexandra Zaïnal
Conception & Développement : Baudouin d'Aumeries
Co-Programmation & Développement : Marc-Olivier Méhu
Soutien technique & logistique : Manuel Goepfert

Contact : metmap@orbifly.com




SOURCES & CREDITS :

   NOAA